sensor_id;sensor_type;location;lat;lon;timestamp;P1;durP1;ratioP1;P2;durP2;ratioP2
9958;SDS011;5019;48.012;7.812;2023-04-28T00:00:30;1.60;;;1.50;;
9958;SDS011;5019;48.012;7.812;2023-04-28T00:02:56;1.90;;;1.60;;
9958;SDS011;5019;48.012;7.812;2023-04-28T00:05:22;1.53;;;1.43;;
9958;SDS011;5019;48.012;7.812;2023-04-28T00:07:49;2.87;;;1.47;;
9958;SDS011;5019;48.012;7.812;2023-04-28T00:10:15;4.40;;;1.80;;
9958;SDS011;5019;48.012;7.812;2023-04-28T00:12:41;1.73;;;1.17;;
9958;SDS011;5019;48.012;7.812;2023-04-28T00:15:07;1.43;;;1.33;;
9958;SDS011;5019;48.012;7.812;2023-04-28T00:17:33;1.30;;;1.20;;
9958;SDS011;5019;48.012;7.812;2023-04-28T00:19:59;2.53;;;1.00;;
9958;SDS011;5019;48.012;7.812;2023-04-28T00:22:25;1.33;;;1.20;;
9958;SDS011;5019;48.012;7.812;2023-04-28T00:24:51;11.07;;;2.17;;
9958;SDS011;5019;48.012;7.812;2023-04-28T00:27:17;1.50;;;1.20;;
9958;SDS011;5019;48.012;7.812;2023-04-28T00:29:44;1.67;;;1.37;;
9958;SDS011;5019;48.012;7.812;2023-04-28T00:32:11;0.83;;;0.80;;
9958;SDS011;5019;48.012;7.812;2023-04-28T00:34:37;1.63;;;1.53;;
9958;SDS011;5019;48.012;7.812;2023-04-28T00:37:03;1.60;;;1.50;;
9958;SDS011;5019;48.012;7.812;2023-04-28T00:39:29;1.83;;;1.30;;
9958;SDS011;5019;48.012;7.812;2023-04-28T00:41:55;1.50;;;1.40;;
9958;SDS011;5019;48.012;7.812;2023-04-28T00:44:21;1.37;;;1.27;;
9958;SDS011;5019;48.012;7.812;2023-04-28T00:46:47;1.70;;;1.40;;
9958;SDS011;5019;48.012;7.812;2023-04-28T00:49:14;2.93;;;1.60;;
9958;SDS011;5019;48.012;7.812;2023-04-28T00:51:40;1.37;;;1.27;;
9958;SDS011;5019;48.012;7.812;2023-04-28T00:54:06;1.50;;;1.23;;
9958;SDS011;5019;48.012;7.812;2023-04-28T00:56:32;1.20;;;1.10;;
9958;SDS011;5019;48.012;7.812;2023-04-28T00:58:58;1.37;;;1.10;;
9958;SDS011;5019;48.012;7.812;2023-04-28T01:01:24;1.57;;;1.47;;
9958;SDS011;5019;48.012;7.812;2023-04-28T01:03:50;1.30;;;1.20;;
9958;SDS011;5019;48.012;7.812;2023-04-28T01:06:17;1.20;;;1.20;;
9958;SDS011;5019;48.012;7.812;2023-04-28T01:08:46;2.27;;;1.47;;
9958;SDS011;5019;48.012;7.812;2023-04-28T01:11:12;2.37;;;1.23;;
9958;SDS011;5019;48.012;7.812;2023-04-28T01:13:39;1.70;;;1.50;;
9958;SDS011;5019;48.012;7.812;2023-04-28T01:16:05;1.87;;;1.47;;
9958;SDS011;5019;48.012;7.812;2023-04-28T01:18:31;2.00;;;1.83;;
9958;SDS011;5019;48.012;7.812;2023-04-28T01:20:58;2.17;;;1.60;;
9958;SDS011;5019;48.012;7.812;2023-04-28T01:23:24;4.93;;;1.60;;
9958;SDS011;5019;48.012;7.812;2023-04-28T01:25:51;1.30;;;1.20;;
9958;SDS011;5019;48.012;7.812;2023-04-28T01:28:17;1.30;;;1.20;;
9958;SDS011;5019;48.012;7.812;2023-04-28T01:30:43;2.00;;;1.50;;
9958;SDS011;5019;48.012;7.812;2023-04-28T01:33:09;4.77;;;2.27;;
9958;SDS011;5019;48.012;7.812;2023-04-28T01:35:34;2.13;;;1.70;;
9958;SDS011;5019;48.012;7.812;2023-04-28T01:38:00;1.57;;;1.27;;
9958;SDS011;5019;48.012;7.812;2023-04-28T01:40:26;2.03;;;1.93;;
9958;SDS011;5019;48.012;7.812;2023-04-28T01:42:52;3.40;;;2.00;;
9958;SDS011;5019;48.012;7.812;2023-04-28T01:45:18;1.90;;;1.80;;
9958;SDS011;5019;48.012;7.812;2023-04-28T01:47:44;3.17;;;2.40;;
9958;SDS011;5019;48.012;7.812;2023-04-28T01:50:10;7.90;;;1.80;;
9958;SDS011;5019;48.012;7.812;2023-04-28T01:52:36;2.40;;;2.20;;
9958;SDS011;5019;48.012;7.812;2023-04-28T01:55:02;2.80;;;2.17;;
9958;SDS011;5019;48.012;7.812;2023-04-28T01:57:28;3.57;;;2.50;;
9958;SDS011;5019;48.012;7.812;2023-04-28T01:59:54;2.63;;;2.43;;
9958;SDS011;5019;48.012;7.812;2023-04-28T02:02:21;3.00;;;2.50;;
9958;SDS011;5019;48.012;7.812;2023-04-28T02:04:47;3.40;;;2.40;;
9958;SDS011;5019;48.012;7.812;2023-04-28T02:07:12;2.03;;;1.70;;
9958;SDS011;5019;48.012;7.812;2023-04-28T02:09:38;3.27;;;1.90;;
9958;SDS011;5019;48.012;7.812;2023-04-28T02:12:04;2.87;;;1.70;;
9958;SDS011;5019;48.012;7.812;2023-04-28T02:14:30;1.70;;;1.50;;
9958;SDS011;5019;48.012;7.812;2023-04-28T02:16:59;1.93;;;1.80;;
9958;SDS011;5019;48.012;7.812;2023-04-28T02:19:27;5.03;;;2.37;;
9958;SDS011;5019;48.012;7.812;2023-04-28T02:21:53;12.77;;;3.60;;
9958;SDS011;5019;48.012;7.812;2023-04-28T02:24:19;2.97;;;2.37;;
9958;SDS011;5019;48.012;7.812;2023-04-28T02:26:45;2.50;;;2.03;;
9958;SDS011;5019;48.012;7.812;2023-04-28T02:29:11;6.33;;;2.47;;
9958;SDS011;5019;48.012;7.812;2023-04-28T02:31:37;2.70;;;1.90;;
9958;SDS011;5019;48.012;7.812;2023-04-28T02:34:03;2.63;;;2.23;;
9958;SDS011;5019;48.012;7.812;2023-04-28T02:36:28;3.40;;;2.03;;
9958;SDS011;5019;48.012;7.812;2023-04-28T02:38:56;2.87;;;1.77;;
9958;SDS011;5019;48.012;7.812;2023-04-28T02:41:22;4.40;;;2.10;;
9958;SDS011;5019;48.012;7.812;2023-04-28T02:43:48;5.07;;;2.20;;
9958;SDS011;5019;48.012;7.812;2023-04-28T02:46:14;4.00;;;2.03;;
9958;SDS011;5019;48.012;7.812;2023-04-28T02:48:40;1.87;;;1.73;;
9958;SDS011;5019;48.012;7.812;2023-04-28T02:51:06;2.20;;;1.97;;
9958;SDS011;5019;48.012;7.812;2023-04-28T02:53:32;1.80;;;1.70;;
9958;SDS011;5019;48.012;7.812;2023-04-28T02:55:58;6.97;;;1.87;;
9958;SDS011;5019;48.012;7.812;2023-04-28T02:58:26;2.60;;;1.47;;
9958;SDS011;5019;48.012;7.812;2023-04-28T03:00:52;1.63;;;1.53;;
9958;SDS011;5019;48.012;7.812;2023-04-28T03:03:17;2.00;;;1.80;;
9958;SDS011;5019;48.012;7.812;2023-04-28T03:05:43;3.70;;;1.83;;
9958;SDS011;5019;48.012;7.812;2023-04-28T03:08:10;3.53;;;2.07;;
9958;SDS011;5019;48.012;7.812;2023-04-28T03:10:36;1.70;;;1.60;;
9958;SDS011;5019;48.012;7.812;2023-04-28T03:13:02;4.20;;;1.67;;
9958;SDS011;5019;48.012;7.812;2023-04-28T03:15:27;2.70;;;1.80;;
9958;SDS011;5019;48.012;7.812;2023-04-28T03:17:53;3.90;;;1.83;;
9958;SDS011;5019;48.012;7.812;2023-04-28T03:20:19;2.90;;;2.10;;
9958;SDS011;5019;48.012;7.812;2023-04-28T03:22:45;3.30;;;2.70;;
9958;SDS011;5019;48.012;7.812;2023-04-28T03:25:11;2.33;;;2.13;;
9958;SDS011;5019;48.012;7.812;2023-04-28T03:27:37;1.60;;;1.50;;
9958;SDS011;5019;48.012;7.812;2023-04-28T03:30:04;2.80;;;1.80;;
9958;SDS011;5019;48.012;7.812;2023-04-28T03:32:30;3.33;;;2.40;;
9958;SDS011;5019;48.012;7.812;2023-04-28T03:34:56;2.47;;;1.73;;
9958;SDS011;5019;48.012;7.812;2023-04-28T03:37:22;1.70;;;1.60;;
9958;SDS011;5019;48.012;7.812;2023-04-28T03:39:48;3.03;;;2.00;;
9958;SDS011;5019;48.012;7.812;2023-04-28T03:42:14;1.73;;;1.60;;
9958;SDS011;5019;48.012;7.812;2023-04-28T03:44:40;4.50;;;2.67;;
9958;SDS011;5019;48.012;7.812;2023-04-28T03:47:06;2.53;;;2.30;;
9958;SDS011;5019;48.012;7.812;2023-04-28T03:49:32;2.07;;;1.67;;
9958;SDS011;5019;48.012;7.812;2023-04-28T03:51:58;3.93;;;2.10;;
9958;SDS011;5019;48.012;7.812;2023-04-28T03:54:24;2.00;;;1.67;;
9958;SDS011;5019;48.012;7.812;2023-04-28T03:56:50;1.70;;;1.47;;
9958;SDS011;5019;48.012;7.812;2023-04-28T03:59:16;3.47;;;1.60;;
9958;SDS011;5019;48.012;7.812;2023-04-28T04:01:42;1.83;;;1.70;;
9958;SDS011;5019;48.012;7.812;2023-04-28T04:04:08;2.10;;;1.60;;
9958;SDS011;5019;48.012;7.812;2023-04-28T04:06:34;2.83;;;1.80;;
9958;SDS011;5019;48.012;7.812;2023-04-28T04:09:00;3.30;;;1.80;;
9958;SDS011;5019;48.012;7.812;2023-04-28T04:11:26;11.87;;;4.77;;
9958;SDS011;5019;48.012;7.812;2023-04-28T04:13:52;3.00;;;2.57;;
9958;SDS011;5019;48.012;7.812;2023-04-28T04:16:18;1.87;;;1.67;;
9958;SDS011;5019;48.012;7.812;2023-04-28T04:18:45;2.80;;;1.70;;
9958;SDS011;5019;48.012;7.812;2023-04-28T04:21:11;2.10;;;1.70;;
9958;SDS011;5019;48.012;7.812;2023-04-28T04:23:37;2.17;;;1.87;;
9958;SDS011;5019;48.012;7.812;2023-04-28T04:26:03;1.77;;;1.67;;
9958;SDS011;5019;48.012;7.812;2023-04-28T04:28:29;2.10;;;1.90;;
9958;SDS011;5019;48.012;7.812;2023-04-28T04:30:55;1.77;;;1.67;;
9958;SDS011;5019;48.012;7.812;2023-04-28T04:33:21;2.27;;;2.07;;
9958;SDS011;5019;48.012;7.812;2023-04-28T04:35:47;2.20;;;1.70;;
9958;SDS011;5019;48.012;7.812;2023-04-28T04:38:13;1.60;;;1.50;;
9958;SDS011;5019;48.012;7.812;2023-04-28T04:40:39;1.70;;;1.43;;
9958;SDS011;5019;48.012;7.812;2023-04-28T04:43:05;1.70;;;1.50;;
9958;SDS011;5019;48.012;7.812;2023-04-28T04:45:31;3.23;;;1.37;;
9958;SDS011;5019;48.012;7.812;2023-04-28T04:47:57;1.30;;;1.27;;
9958;SDS011;5019;48.012;7.812;2023-04-28T04:50:23;1.30;;;1.20;;
9958;SDS011;5019;48.012;7.812;2023-04-28T04:52:50;1.50;;;1.40;;
9958;SDS011;5019;48.012;7.812;2023-04-28T04:55:16;1.60;;;1.40;;
9958;SDS011;5019;48.012;7.812;2023-04-28T04:57:42;1.77;;;1.60;;
9958;SDS011;5019;48.012;7.812;2023-04-28T05:00:08;2.67;;;1.50;;
9958;SDS011;5019;48.012;7.812;2023-04-28T05:02:34;1.57;;;1.47;;
9958;SDS011;5019;48.012;7.812;2023-04-28T05:05:00;1.80;;;1.70;;
9958;SDS011;5019;48.012;7.812;2023-04-28T05:07:26;1.90;;;1.63;;
9958;SDS011;5019;48.012;7.812;2023-04-28T05:09:52;1.97;;;1.70;;
9958;SDS011;5019;48.012;7.812;2023-04-28T05:12:18;2.77;;;1.67;;
9958;SDS011;5019;48.012;7.812;2023-04-28T05:14:44;2.40;;;2.13;;
9958;SDS011;5019;48.012;7.812;2023-04-28T05:17:10;3.10;;;1.73;;
9958;SDS011;5019;48.012;7.812;2023-04-28T05:19:36;1.83;;;1.70;;
9958;SDS011;5019;48.012;7.812;2023-04-28T05:22:02;2.30;;;1.57;;
9958;SDS011;5019;48.012;7.812;2023-04-28T05:24:28;2.40;;;1.53;;
9958;SDS011;5019;48.012;7.812;2023-04-28T05:26:55;2.07;;;1.90;;
9958;SDS011;5019;48.012;7.812;2023-04-28T05:29:22;3.07;;;2.33;;
9958;SDS011;5019;48.012;7.812;2023-04-28T05:31:48;1.77;;;1.30;;
9958;SDS011;5019;48.012;7.812;2023-04-28T05:34:14;2.57;;;1.90;;
9958;SDS011;5019;48.012;7.812;2023-04-28T05:36:40;2.27;;;1.70;;
9958;SDS011;5019;48.012;7.812;2023-04-28T05:39:06;1.97;;;1.87;;
9958;SDS011;5019;48.012;7.812;2023-04-28T05:41:33;2.40;;;1.83;;
9958;SDS011;5019;48.012;7.812;2023-04-28T05:44:02;2.00;;;1.80;;
9958;SDS011;5019;48.012;7.812;2023-04-28T05:46:29;2.83;;;1.57;;
9958;SDS011;5019;48.012;7.812;2023-04-28T05:48:55;2.53;;;2.00;;
9958;SDS011;5019;48.012;7.812;2023-04-28T05:51:21;2.43;;;1.90;;
9958;SDS011;5019;48.012;7.812;2023-04-28T05:53:47;1.80;;;1.70;;
9958;SDS011;5019;48.012;7.812;2023-04-28T05:56:14;1.80;;;1.60;;
9958;SDS011;5019;48.012;7.812;2023-04-28T05:58:40;2.10;;;1.47;;
9958;SDS011;5019;48.012;7.812;2023-04-28T06:01:08;2.53;;;2.00;;
9958;SDS011;5019;48.012;7.812;2023-04-28T06:03:34;1.40;;;1.30;;
9958;SDS011;5019;48.012;7.812;2023-04-28T06:06:00;1.73;;;1.63;;
9958;SDS011;5019;48.012;7.812;2023-04-28T06:08:26;2.30;;;2.10;;
9958;SDS011;5019;48.012;7.812;2023-04-28T06:10:52;2.47;;;2.03;;
9958;SDS011;5019;48.012;7.812;2023-04-28T06:13:18;2.23;;;2.03;;
9958;SDS011;5019;48.012;7.812;2023-04-28T06:15:44;4.07;;;1.77;;
9958;SDS011;5019;48.012;7.812;2023-04-28T06:18:10;1.93;;;1.83;;
9958;SDS011;5019;48.012;7.812;2023-04-28T06:20:36;2.33;;;1.87;;
9958;SDS011;5019;48.012;7.812;2023-04-28T06:23:02;1.67;;;1.57;;
9958;SDS011;5019;48.012;7.812;2023-04-28T06:25:29;2.13;;;1.70;;
9958;SDS011;5019;48.012;7.812;2023-04-28T06:27:55;2.20;;;1.60;;
9958;SDS011;5019;48.012;7.812;2023-04-28T06:30:21;1.87;;;1.77;;
9958;SDS011;5019;48.012;7.812;2023-04-28T06:32:48;1.80;;;1.70;;
9958;SDS011;5019;48.012;7.812;2023-04-28T06:35:14;2.07;;;1.80;;
9958;SDS011;5019;48.012;7.812;2023-04-28T06:37:41;2.40;;;1.27;;
9958;SDS011;5019;48.012;7.812;2023-04-28T06:40:07;1.50;;;1.40;;
9958;SDS011;5019;48.012;7.812;2023-04-28T06:42:33;2.70;;;1.90;;
9958;SDS011;5019;48.012;7.812;2023-04-28T06:44:59;2.30;;;2.10;;
9958;SDS011;5019;48.012;7.812;2023-04-28T06:47:25;2.03;;;1.77;;
9958;SDS011;5019;48.012;7.812;2023-04-28T06:49:51;2.27;;;1.73;;
9958;SDS011;5019;48.012;7.812;2023-04-28T06:52:18;2.17;;;1.63;;
9958;SDS011;5019;48.012;7.812;2023-04-28T06:54:46;2.00;;;1.90;;
9958;SDS011;5019;48.012;7.812;2023-04-28T06:57:12;2.20;;;1.80;;
9958;SDS011;5019;48.012;7.812;2023-04-28T06:59:38;3.63;;;1.90;;
9958;SDS011;5019;48.012;7.812;2023-04-28T07:02:04;2.07;;;1.97;;
9958;SDS011;5019;48.012;7.812;2023-04-28T07:04:30;2.03;;;1.63;;
9958;SDS011;5019;48.012;7.812;2023-04-28T07:06:56;2.90;;;2.30;;
9958;SDS011;5019;48.012;7.812;2023-04-28T07:09:22;2.37;;;2.20;;
9958;SDS011;5019;48.012;7.812;2023-04-28T07:11:48;3.33;;;2.00;;
9958;SDS011;5019;48.012;7.812;2023-04-28T07:14:14;1.90;;;1.80;;
9958;SDS011;5019;48.012;7.812;2023-04-28T07:16:40;2.93;;;1.90;;
9958;SDS011;5019;48.012;7.812;2023-04-28T07:19:06;2.13;;;1.80;;
9958;SDS011;5019;48.012;7.812;2023-04-28T07:21:32;2.53;;;1.97;;
9958;SDS011;5019;48.012;7.812;2023-04-28T07:23:58;3.10;;;1.87;;
9958;SDS011;5019;48.012;7.812;2023-04-28T07:26:24;2.33;;;1.90;;
9958;SDS011;5019;48.012;7.812;2023-04-28T07:28:50;3.00;;;1.90;;
9958;SDS011;5019;48.012;7.812;2023-04-28T07:31:16;2.37;;;2.03;;
9958;SDS011;5019;48.012;7.812;2023-04-28T07:33:42;2.00;;;1.80;;
9958;SDS011;5019;48.012;7.812;2023-04-28T07:36:08;2.10;;;1.90;;
9958;SDS011;5019;48.012;7.812;2023-04-28T07:38:35;1.97;;;1.70;;
9958;SDS011;5019;48.012;7.812;2023-04-28T07:41:01;1.53;;;1.43;;
9958;SDS011;5019;48.012;7.812;2023-04-28T07:43:27;2.40;;;1.93;;
9958;SDS011;5019;48.012;7.812;2023-04-28T07:45:53;4.50;;;2.07;;
9958;SDS011;5019;48.012;7.812;2023-04-28T07:48:19;1.93;;;1.73;;
9958;SDS011;5019;48.012;7.812;2023-04-28T07:50:45;1.57;;;1.47;;
9958;SDS011;5019;48.012;7.812;2023-04-28T07:53:12;2.20;;;1.90;;
9958;SDS011;5019;48.012;7.812;2023-04-28T07:55:38;1.30;;;1.20;;
9958;SDS011;5019;48.012;7.812;2023-04-28T07:58:06;4.13;;;1.80;;
9958;SDS011;5019;48.012;7.812;2023-04-28T08:00:32;1.97;;;1.80;;
9958;SDS011;5019;48.012;7.812;2023-04-28T08:02:58;2.80;;;2.03;;
9958;SDS011;5019;48.012;7.812;2023-04-28T08:05:24;2.10;;;1.70;;
9958;SDS011;5019;48.012;7.812;2023-04-28T08:07:50;1.60;;;1.50;;
9958;SDS011;5019;48.012;7.812;2023-04-28T08:10:16;3.70;;;1.93;;
9958;SDS011;5019;48.012;7.812;2023-04-28T08:12:42;1.57;;;1.47;;
9958;SDS011;5019;48.012;7.812;2023-04-28T08:15:09;2.50;;;1.63;;
9958;SDS011;5019;48.012;7.812;2023-04-28T08:17:35;1.67;;;1.57;;
9958;SDS011;5019;48.012;7.812;2023-04-28T08:20:02;1.70;;;1.40;;
9958;SDS011;5019;48.012;7.812;2023-04-28T08:22:28;3.27;;;2.27;;
9958;SDS011;5019;48.012;7.812;2023-04-28T08:24:54;2.70;;;1.83;;
9958;SDS011;5019;48.012;7.812;2023-04-28T08:27:20;2.50;;;1.63;;
9958;SDS011;5019;48.012;7.812;2023-04-28T08:29:47;2.73;;;1.67;;
9958;SDS011;5019;48.012;7.812;2023-04-28T08:32:14;1.40;;;1.30;;
9958;SDS011;5019;48.012;7.812;2023-04-28T08:34:40;1.80;;;1.70;;
9958;SDS011;5019;48.012;7.812;2023-04-28T08:37:06;2.13;;;1.73;;
9958;SDS011;5019;48.012;7.812;2023-04-28T08:39:32;2.30;;;1.60;;
9958;SDS011;5019;48.012;7.812;2023-04-28T08:42:01;1.67;;;1.53;;
9958;SDS011;5019;48.012;7.812;2023-04-28T08:44:28;1.70;;;1.50;;
9958;SDS011;5019;48.012;7.812;2023-04-28T08:46:57;2.10;;;1.77;;
9958;SDS011;5019;48.012;7.812;2023-04-28T08:49:26;2.10;;;1.60;;
9958;SDS011;5019;48.012;7.812;2023-04-28T08:51:58;2.13;;;2.00;;
9958;SDS011;5019;48.012;7.812;2023-04-28T08:54:29;1.40;;;1.30;;
9958;SDS011;5019;48.012;7.812;2023-04-28T08:56:56;1.93;;;1.73;;
9958;SDS011;5019;48.012;7.812;2023-04-28T08:59:22;3.23;;;1.80;;
9958;SDS011;5019;48.012;7.812;2023-04-28T09:01:48;1.77;;;1.67;;
9958;SDS011;5019;48.012;7.812;2023-04-28T09:04:15;1.70;;;1.50;;
9958;SDS011;5019;48.012;7.812;2023-04-28T09:06:42;2.03;;;1.90;;
9958;SDS011;5019;48.012;7.812;2023-04-28T09:09:23;2.13;;;1.77;;
9958;SDS011;5019;48.012;7.812;2023-04-28T09:14:16;2.60;;;2.40;;
9958;SDS011;5019;48.012;7.812;2023-04-28T09:16:42;2.37;;;2.17;;
9958;SDS011;5019;48.012;7.812;2023-04-28T09:19:08;4.50;;;2.37;;
9958;SDS011;5019;48.012;7.812;2023-04-28T09:24:32;1.67;;;1.57;;
9958;SDS011;5019;48.012;7.812;2023-04-28T09:26:59;1.97;;;1.30;;
9958;SDS011;5019;48.012;7.812;2023-04-28T09:29:26;2.03;;;1.60;;
9958;SDS011;5019;48.012;7.812;2023-04-28T09:31:52;6.97;;;1.70;;
9958;SDS011;5019;48.012;7.812;2023-04-28T09:34:19;2.10;;;1.73;;
9958;SDS011;5019;48.012;7.812;2023-04-28T09:36:46;2.20;;;2.00;;
9958;SDS011;5019;48.012;7.812;2023-04-28T09:39:12;1.90;;;1.70;;
9958;SDS011;5019;48.012;7.812;2023-04-28T09:41:38;3.53;;;1.70;;
9958;SDS011;5019;48.012;7.812;2023-04-28T09:44:09;5.13;;;2.30;;
9958;SDS011;5019;48.012;7.812;2023-04-28T09:46:35;2.33;;;1.80;;
9958;SDS011;5019;48.012;7.812;2023-04-28T09:49:01;1.80;;;1.70;;
9958;SDS011;5019;48.012;7.812;2023-04-28T09:51:27;5.50;;;2.10;;
9958;SDS011;5019;48.012;7.812;2023-04-28T09:53:53;2.00;;;1.87;;
9958;SDS011;5019;48.012;7.812;2023-04-28T09:56:21;2.03;;;1.93;;
9958;SDS011;5019;48.012;7.812;2023-04-28T09:58:49;1.50;;;1.40;;
9958;SDS011;5019;48.012;7.812;2023-04-28T10:01:16;2.03;;;1.90;;
9958;SDS011;5019;48.012;7.812;2023-04-28T10:12:53;2.10;;;1.90;;
9958;SDS011;5019;48.012;7.812;2023-04-28T10:15:19;1.87;;;1.77;;
9958;SDS011;5019;48.012;7.812;2023-04-28T10:17:46;3.83;;;1.60;;
9958;SDS011;5019;48.012;7.812;2023-04-28T10:20:14;1.67;;;1.53;;
9958;SDS011;5019;48.012;7.812;2023-04-28T10:25:31;2.57;;;2.37;;
9958;SDS011;5019;48.012;7.812;2023-04-28T10:27:59;1.53;;;1.30;;
9958;SDS011;5019;48.012;7.812;2023-04-28T10:30:25;2.63;;;1.60;;
9958;SDS011;5019;48.012;7.812;2023-04-28T10:40:35;8.93;;;2.30;;
9958;SDS011;5019;48.012;7.812;2023-04-28T10:43:02;2.20;;;1.90;;
9958;SDS011;5019;48.012;7.812;2023-04-28T10:48:14;2.53;;;2.10;;
9958;SDS011;5019;48.012;7.812;2023-04-28T10:54:07;1.90;;;1.43;;
9958;SDS011;5019;48.012;7.812;2023-04-28T10:56:16;1.70;;;1.60;;
9958;SDS011;5019;48.012;7.812;2023-04-28T11:03:47;2.17;;;1.83;;
9958;SDS011;5019;48.012;7.812;2023-04-28T11:08:56;1.90;;;1.57;;
9958;SDS011;5019;48.012;7.812;2023-04-28T11:11:27;1.87;;;1.40;;
9958;SDS011;5019;48.012;7.812;2023-04-28T11:13:54;1.43;;;1.33;;
9958;SDS011;5019;48.012;7.812;2023-04-28T11:16:21;1.80;;;1.50;;
9958;SDS011;5019;48.012;7.812;2023-04-28T11:21:14;1.27;;;1.10;;
9958;SDS011;5019;48.012;7.812;2023-04-28T11:23:41;2.10;;;1.30;;
9958;SDS011;5019;48.012;7.812;2023-04-28T11:26:07;1.00;;;1.00;;
9958;SDS011;5019;48.012;7.812;2023-04-28T11:28:33;3.37;;;1.77;;
9958;SDS011;5019;48.012;7.812;2023-04-28T11:31:10;1.53;;;1.40;;
9958;SDS011;5019;48.012;7.812;2023-04-28T11:33:37;2.67;;;1.63;;
9958;SDS011;5019;48.012;7.812;2023-04-28T11:36:03;1.23;;;1.07;;
9958;SDS011;5019;48.012;7.812;2023-04-28T11:38:41;2.87;;;1.53;;
9958;SDS011;5019;48.012;7.812;2023-04-28T11:41:07;1.47;;;1.37;;
9958;SDS011;5019;48.012;7.812;2023-04-28T11:43:33;1.83;;;1.60;;
9958;SDS011;5019;48.012;7.812;2023-04-28T11:45:59;1.30;;;1.20;;
9958;SDS011;5019;48.012;7.812;2023-04-28T11:48:25;1.40;;;1.30;;
9958;SDS011;5019;48.012;7.812;2023-04-28T11:50:51;2.30;;;1.60;;
9958;SDS011;5019;48.012;7.812;2023-04-28T11:53:17;1.50;;;1.40;;
9958;SDS011;5019;48.012;7.812;2023-04-28T11:55:44;1.47;;;1.37;;
9958;SDS011;5019;48.012;7.812;2023-04-28T11:58:17;1.77;;;1.60;;
9958;SDS011;5019;48.012;7.812;2023-04-28T12:00:43;1.40;;;1.30;;
9958;SDS011;5019;48.012;7.812;2023-04-28T12:03:09;1.57;;;1.20;;
9958;SDS011;5019;48.012;7.812;2023-04-28T12:05:42;1.57;;;1.20;;
9958;SDS011;5019;48.012;7.812;2023-04-28T12:08:08;1.63;;;1.53;;
9958;SDS011;5019;48.012;7.812;2023-04-28T12:10:34;1.63;;;1.53;;
9958;SDS011;5019;48.012;7.812;2023-04-28T12:13:13;1.93;;;1.10;;
9958;SDS011;5019;48.012;7.812;2023-04-28T12:15:40;1.70;;;1.60;;
9958;SDS011;5019;48.012;7.812;2023-04-28T12:18:09;1.50;;;1.40;;
9958;SDS011;5019;48.012;7.812;2023-04-28T12:20:36;4.40;;;1.70;;
9958;SDS011;5019;48.012;7.812;2023-04-28T12:23:03;1.43;;;1.33;;
9958;SDS011;5019;48.012;7.812;2023-04-28T12:25:30;1.30;;;1.30;;
9958;SDS011;5019;48.012;7.812;2023-04-28T12:30:25;4.30;;;1.20;;
9958;SDS011;5019;48.012;7.812;2023-04-28T12:32:51;3.70;;;1.50;;
9958;SDS011;5019;48.012;7.812;2023-04-28T12:35:21;1.93;;;1.50;;
9958;SDS011;5019;48.012;7.812;2023-04-28T12:37:47;1.47;;;1.37;;
9958;SDS011;5019;48.012;7.812;2023-04-28T12:40:13;2.70;;;1.50;;
9958;SDS011;5019;48.012;7.812;2023-04-28T12:42:39;1.60;;;1.50;;
9958;SDS011;5019;48.012;7.812;2023-04-28T12:45:06;1.30;;;1.20;;
9958;SDS011;5019;48.012;7.812;2023-04-28T12:47:35;1.50;;;1.40;;
9958;SDS011;5019;48.012;7.812;2023-04-28T12:50:01;1.83;;;1.30;;
9958;SDS011;5019;48.012;7.812;2023-04-28T12:52:27;1.33;;;1.00;;
9958;SDS011;5019;48.012;7.812;2023-04-28T12:54:53;1.60;;;1.50;;
9958;SDS011;5019;48.012;7.812;2023-04-28T12:57:19;1.40;;;1.30;;
9958;SDS011;5019;48.012;7.812;2023-04-28T12:59:45;1.50;;;1.40;;
9958;SDS011;5019;48.012;7.812;2023-04-28T13:02:12;1.33;;;1.23;;
9958;SDS011;5019;48.012;7.812;2023-04-28T13:04:39;1.50;;;1.40;;
9958;SDS011;5019;48.012;7.812;2023-04-28T13:07:06;1.30;;;1.20;;
9958;SDS011;5019;48.012;7.812;2023-04-28T13:09:33;1.03;;;1.00;;
9958;SDS011;5019;48.012;7.812;2023-04-28T13:11:59;1.37;;;1.13;;
9958;SDS011;5019;48.012;7.812;2023-04-28T13:14:27;1.60;;;1.13;;
9958;SDS011;5019;48.012;7.812;2023-04-28T13:16:53;1.40;;;1.30;;
9958;SDS011;5019;48.012;7.812;2023-04-28T13:19:19;1.67;;;0.93;;
9958;SDS011;5019;48.012;7.812;2023-04-28T13:21:46;1.83;;;1.30;;
9958;SDS011;5019;48.012;7.812;2023-04-28T13:24:12;2.67;;;1.37;;
9958;SDS011;5019;48.012;7.812;2023-04-28T13:26:38;0.97;;;0.97;;
9958;SDS011;5019;48.012;7.812;2023-04-28T13:29:04;1.70;;;1.00;;
9958;SDS011;5019;48.012;7.812;2023-04-28T13:31:32;1.40;;;1.30;;
9958;SDS011;5019;48.012;7.812;2023-04-28T13:33:58;1.37;;;1.20;;
9958;SDS011;5019;48.012;7.812;2023-04-28T13:36:26;0.70;;;0.70;;
9958;SDS011;5019;48.012;7.812;2023-04-28T13:38:53;1.20;;;1.10;;
9958;SDS011;5019;48.012;7.812;2023-04-28T13:41:19;1.00;;;1.00;;
9958;SDS011;5019;48.012;7.812;2023-04-28T13:43:45;1.93;;;1.33;;
9958;SDS011;5019;48.012;7.812;2023-04-28T13:46:11;1.33;;;1.23;;
9958;SDS011;5019;48.012;7.812;2023-04-28T13:48:38;1.40;;;1.30;;
9958;SDS011;5019;48.012;7.812;2023-04-28T13:51:04;2.47;;;1.47;;
9958;SDS011;5019;48.012;7.812;2023-04-28T13:53:30;1.10;;;1.00;;
9958;SDS011;5019;48.012;7.812;2023-04-28T13:55:57;2.53;;;1.00;;
9958;SDS011;5019;48.012;7.812;2023-04-28T13:58:24;1.30;;;1.20;;
9958;SDS011;5019;48.012;7.812;2023-04-28T14:00:50;1.20;;;1.10;;
9958;SDS011;5019;48.012;7.812;2023-04-28T14:03:16;2.37;;;1.00;;
9958;SDS011;5019;48.012;7.812;2023-04-28T14:05:43;0.93;;;0.93;;
9958;SDS011;5019;48.012;7.812;2023-04-28T14:08:09;3.13;;;1.10;;
9958;SDS011;5019;48.012;7.812;2023-04-28T14:10:36;1.23;;;1.10;;
9958;SDS011;5019;48.012;7.812;2023-04-28T14:13:02;3.47;;;1.30;;
9958;SDS011;5019;48.012;7.812;2023-04-28T14:15:29;1.60;;;1.50;;
9958;SDS011;5019;48.012;7.812;2023-04-28T14:17:56;1.70;;;1.20;;
9958;SDS011;5019;48.012;7.812;2023-04-28T14:20:22;3.67;;;1.50;;
9958;SDS011;5019;48.012;7.812;2023-04-28T14:22:48;1.43;;;1.17;;
9958;SDS011;5019;48.012;7.812;2023-04-28T14:25:15;1.60;;;1.20;;
9958;SDS011;5019;48.012;7.812;2023-04-28T14:27:42;1.13;;;1.07;;
9958;SDS011;5019;48.012;7.812;2023-04-28T14:30:08;1.33;;;1.13;;
9958;SDS011;5019;48.012;7.812;2023-04-28T14:32:35;1.23;;;1.00;;
9958;SDS011;5019;48.012;7.812;2023-04-28T14:35:01;2.00;;;1.10;;
9958;SDS011;5019;48.012;7.812;2023-04-28T14:37:29;0.93;;;0.90;;
9958;SDS011;5019;48.012;7.812;2023-04-28T14:39:55;0.87;;;0.87;;
9958;SDS011;5019;48.012;7.812;2023-04-28T14:42:26;5.70;;;1.10;;
9958;SDS011;5019;48.012;7.812;2023-04-28T14:44:52;1.33;;;0.97;;
9958;SDS011;5019;48.012;7.812;2023-04-28T14:47:18;2.87;;;1.10;;
9958;SDS011;5019;48.012;7.812;2023-04-28T14:49:45;0.97;;;0.93;;
9958;SDS011;5019;48.012;7.812;2023-04-28T14:52:11;0.90;;;0.90;;
9958;SDS011;5019;48.012;7.812;2023-04-28T14:54:37;3.03;;;1.47;;
9958;SDS011;5019;48.012;7.812;2023-04-28T14:57:03;1.70;;;1.30;;
9958;SDS011;5019;48.012;7.812;2023-04-28T14:59:30;2.30;;;0.73;;
9958;SDS011;5019;48.012;7.812;2023-04-28T15:01:56;1.23;;;0.90;;
9958;SDS011;5019;48.012;7.812;2023-04-28T15:04:23;1.13;;;0.80;;
9958;SDS011;5019;48.012;7.812;2023-04-28T15:06:54;0.70;;;0.70;;
9958;SDS011;5019;48.012;7.812;2023-04-28T15:09:20;1.20;;;1.17;;
9958;SDS011;5019;48.012;7.812;2023-04-28T15:11:46;1.17;;;0.93;;
9958;SDS011;5019;48.012;7.812;2023-04-28T15:14:12;4.67;;;0.90;;
9958;SDS011;5019;48.012;7.812;2023-04-28T15:16:38;3.60;;;0.80;;
9958;SDS011;5019;48.012;7.812;2023-04-28T15:19:04;1.00;;;0.97;;
9958;SDS011;5019;48.012;7.812;2023-04-28T15:21:30;1.23;;;0.80;;
9958;SDS011;5019;48.012;7.812;2023-04-28T15:23:57;3.07;;;1.73;;
9958;SDS011;5019;48.012;7.812;2023-04-28T15:26:24;0.77;;;0.73;;
9958;SDS011;5019;48.012;7.812;2023-04-28T15:28:50;1.43;;;1.00;;
9958;SDS011;5019;48.012;7.812;2023-04-28T15:31:17;0.80;;;0.80;;
9958;SDS011;5019;48.012;7.812;2023-04-28T15:33:43;0.70;;;0.70;;
9958;SDS011;5019;48.012;7.812;2023-04-28T15:36:09;1.07;;;1.00;;
9958;SDS011;5019;48.012;7.812;2023-04-28T15:38:35;0.80;;;0.80;;
9958;SDS011;5019;48.012;7.812;2023-04-28T15:41:02;0.70;;;0.70;;
9958;SDS011;5019;48.012;7.812;2023-04-28T15:43:28;1.10;;;1.00;;
9958;SDS011;5019;48.012;7.812;2023-04-28T15:45:54;1.77;;;1.13;;
9958;SDS011;5019;48.012;7.812;2023-04-28T15:48:20;1.13;;;0.70;;
9958;SDS011;5019;48.012;7.812;2023-04-28T15:50:47;2.23;;;1.10;;
9958;SDS011;5019;48.012;7.812;2023-04-28T15:53:13;0.80;;;0.70;;